sensor_id;sensor_type;location;lat;lon;timestamp;P1;durP1;ratioP1;P2;durP2;ratioP2
46863;SDS011;32598;50.204;6.408;2023-05-29T00:00:07;11.50;;;5.43;;
46863;SDS011;32598;50.204;6.408;2023-05-29T00:02:33;17.95;;;6.03;;
46863;SDS011;32598;50.204;6.408;2023-05-29T00:04:58;13.70;;;5.95;;
46863;SDS011;32598;50.204;6.408;2023-05-29T00:07:24;13.82;;;5.57;;
46863;SDS011;32598;50.204;6.408;2023-05-29T00:09:49;14.90;;;5.78;;
46863;SDS011;32598;50.204;6.408;2023-05-29T00:12:14;13.43;;;5.70;;
46863;SDS011;32598;50.204;6.408;2023-05-29T00:14:40;13.98;;;5.55;;
46863;SDS011;32598;50.204;6.408;2023-05-29T00:17:05;10.80;;;5.03;;
46863;SDS011;32598;50.204;6.408;2023-05-29T00:19:31;17.35;;;6.50;;
46863;SDS011;32598;50.204;6.408;2023-05-29T00:21:56;14.30;;;6.70;;
46863;SDS011;32598;50.204;6.408;2023-05-29T00:24:21;17.85;;;6.13;;
46863;SDS011;32598;50.204;6.408;2023-05-29T00:26:46;16.00;;;6.17;;
46863;SDS011;32598;50.204;6.408;2023-05-29T00:29:11;15.18;;;5.95;;
46863;SDS011;32598;50.204;6.408;2023-05-29T00:31:37;14.40;;;6.27;;
46863;SDS011;32598;50.204;6.408;2023-05-29T00:34:02;13.07;;;6.07;;
46863;SDS011;32598;50.204;6.408;2023-05-29T00:36:27;14.20;;;6.37;;
46863;SDS011;32598;50.204;6.408;2023-05-29T00:38:54;12.68;;;5.90;;
46863;SDS011;32598;50.204;6.408;2023-05-29T00:41:19;13.00;;;5.70;;
46863;SDS011;32598;50.204;6.408;2023-05-29T00:43:45;14.23;;;6.03;;
46863;SDS011;32598;50.204;6.408;2023-05-29T00:46:10;12.93;;;6.50;;
46863;SDS011;32598;50.204;6.408;2023-05-29T00:48:37;14.35;;;6.55;;
46863;SDS011;32598;50.204;6.408;2023-05-29T00:51:02;13.43;;;6.33;;
46863;SDS011;32598;50.204;6.408;2023-05-29T00:53:27;14.35;;;5.88;;
46863;SDS011;32598;50.204;6.408;2023-05-29T00:55:53;15.65;;;7.13;;
46863;SDS011;32598;50.204;6.408;2023-05-29T00:58:18;15.98;;;7.25;;
46863;SDS011;32598;50.204;6.408;2023-05-29T01:00:44;15.45;;;7.15;;
46863;SDS011;32598;50.204;6.408;2023-05-29T01:03:09;16.38;;;7.20;;
46863;SDS011;32598;50.204;6.408;2023-05-29T01:05:39;13.55;;;6.63;;
46863;SDS011;32598;50.204;6.408;2023-05-29T01:08:05;19.65;;;7.28;;
46863;SDS011;32598;50.204;6.408;2023-05-29T01:10:30;17.85;;;7.47;;
46863;SDS011;32598;50.204;6.408;2023-05-29T01:13:01;13.43;;;7.00;;
46863;SDS011;32598;50.204;6.408;2023-05-29T01:20:24;15.57;;;7.27;;
46863;SDS011;32598;50.204;6.408;2023-05-29T01:22:56;17.30;;;7.22;;
46863;SDS011;32598;50.204;6.408;2023-05-29T01:27:58;18.25;;;7.32;;
46863;SDS011;32598;50.204;6.408;2023-05-29T01:30:26;18.48;;;7.30;;
46863;SDS011;32598;50.204;6.408;2023-05-29T01:32:53;17.20;;;7.57;;
46863;SDS011;32598;50.204;6.408;2023-05-29T01:35:18;18.35;;;7.13;;
46863;SDS011;32598;50.204;6.408;2023-05-29T01:37:43;16.52;;;6.80;;
46863;SDS011;32598;50.204;6.408;2023-05-29T01:40:09;15.57;;;7.60;;
46863;SDS011;32598;50.204;6.408;2023-05-29T01:42:34;15.45;;;7.70;;
46863;SDS011;32598;50.204;6.408;2023-05-29T01:45:00;15.32;;;7.50;;
46863;SDS011;32598;50.204;6.408;2023-05-29T01:47:26;16.42;;;7.28;;
46863;SDS011;32598;50.204;6.408;2023-05-29T01:49:51;19.00;;;7.75;;
46863;SDS011;32598;50.204;6.408;2023-05-29T01:52:17;14.52;;;6.93;;
46863;SDS011;32598;50.204;6.408;2023-05-29T01:54:42;15.65;;;7.45;;
46863;SDS011;32598;50.204;6.408;2023-05-29T01:57:08;19.15;;;8.85;;
46863;SDS011;32598;50.204;6.408;2023-05-29T01:59:33;18.13;;;8.05;;
46863;SDS011;32598;50.204;6.408;2023-05-29T02:02:06;17.52;;;7.20;;
46863;SDS011;32598;50.204;6.408;2023-05-29T02:04:32;14.30;;;7.50;;
46863;SDS011;32598;50.204;6.408;2023-05-29T02:06:57;13.70;;;7.80;;
46863;SDS011;32598;50.204;6.408;2023-05-29T02:09:23;20.98;;;7.68;;
46863;SDS011;32598;50.204;6.408;2023-05-29T02:11:48;15.30;;;7.60;;
46863;SDS011;32598;50.204;6.408;2023-05-29T02:14:13;16.63;;;7.38;;
46863;SDS011;32598;50.204;6.408;2023-05-29T02:16:38;15.50;;;8.32;;
46863;SDS011;32598;50.204;6.408;2023-05-29T02:19:05;18.40;;;8.35;;
46863;SDS011;32598;50.204;6.408;2023-05-29T02:21:31;16.90;;;7.97;;
46863;SDS011;32598;50.204;6.408;2023-05-29T02:23:56;14.95;;;8.13;;
46863;SDS011;32598;50.204;6.408;2023-05-29T02:26:21;16.65;;;7.40;;
46863;SDS011;32598;50.204;6.408;2023-05-29T02:28:48;17.40;;;7.40;;
46863;SDS011;32598;50.204;6.408;2023-05-29T02:31:13;16.98;;;7.57;;
46863;SDS011;32598;50.204;6.408;2023-05-29T02:33:38;17.03;;;8.00;;
46863;SDS011;32598;50.204;6.408;2023-05-29T02:36:03;22.30;;;8.60;;
46863;SDS011;32598;50.204;6.408;2023-05-29T02:38:28;20.13;;;8.50;;
46863;SDS011;32598;50.204;6.408;2023-05-29T02:40:54;18.50;;;8.48;;
46863;SDS011;32598;50.204;6.408;2023-05-29T02:43:21;18.40;;;8.07;;
46863;SDS011;32598;50.204;6.408;2023-05-29T02:45:46;14.43;;;7.47;;
46863;SDS011;32598;50.204;6.408;2023-05-29T02:48:11;19.25;;;8.27;;
46863;SDS011;32598;50.204;6.408;2023-05-29T02:50:37;16.67;;;7.55;;
46863;SDS011;32598;50.204;6.408;2023-05-29T02:53:02;14.00;;;7.83;;
46863;SDS011;32598;50.204;6.408;2023-05-29T02:55:27;15.40;;;7.97;;
46863;SDS011;32598;50.204;6.408;2023-05-29T02:57:53;13.95;;;7.60;;
46863;SDS011;32598;50.204;6.408;2023-05-29T03:00:20;20.77;;;8.27;;
46863;SDS011;32598;50.204;6.408;2023-05-29T03:02:45;15.10;;;7.72;;
46863;SDS011;32598;50.204;6.408;2023-05-29T03:05:11;18.42;;;8.52;;
46863;SDS011;32598;50.204;6.408;2023-05-29T03:07:36;17.27;;;7.25;;
46863;SDS011;32598;50.204;6.408;2023-05-29T03:10:01;15.47;;;7.67;;
46863;SDS011;32598;50.204;6.408;2023-05-29T03:12:28;15.55;;;7.70;;
46863;SDS011;32598;50.204;6.408;2023-05-29T03:14:54;17.60;;;8.15;;
46863;SDS011;32598;50.204;6.408;2023-05-29T03:17:21;15.75;;;7.50;;
46863;SDS011;32598;50.204;6.408;2023-05-29T03:19:46;18.40;;;8.18;;
46863;SDS011;32598;50.204;6.408;2023-05-29T03:22:11;19.85;;;8.55;;
46863;SDS011;32598;50.204;6.408;2023-05-29T03:24:37;20.90;;;8.33;;
46863;SDS011;32598;50.204;6.408;2023-05-29T03:27:02;20.67;;;9.05;;
46863;SDS011;32598;50.204;6.408;2023-05-29T03:29:28;19.30;;;8.95;;
46863;SDS011;32598;50.204;6.408;2023-05-29T03:31:53;17.40;;;8.57;;
46863;SDS011;32598;50.204;6.408;2023-05-29T03:34:19;16.23;;;8.07;;
46863;SDS011;32598;50.204;6.408;2023-05-29T03:36:45;23.73;;;8.02;;
46863;SDS011;32598;50.204;6.408;2023-05-29T03:39:11;15.73;;;7.95;;
46863;SDS011;32598;50.204;6.408;2023-05-29T03:41:37;17.70;;;8.57;;
46863;SDS011;32598;50.204;6.408;2023-05-29T03:44:02;18.87;;;8.50;;
46863;SDS011;32598;50.204;6.408;2023-05-29T03:46:27;16.15;;;8.43;;
46863;SDS011;32598;50.204;6.408;2023-05-29T03:48:52;17.27;;;8.27;;
46863;SDS011;32598;50.204;6.408;2023-05-29T03:51:17;19.83;;;7.73;;
46863;SDS011;32598;50.204;6.408;2023-05-29T03:53:43;18.83;;;8.30;;
46863;SDS011;32598;50.204;6.408;2023-05-29T03:56:08;18.20;;;8.65;;
46863;SDS011;32598;50.204;6.408;2023-05-29T03:58:33;17.17;;;8.73;;
46863;SDS011;32598;50.204;6.408;2023-05-29T04:00:58;22.67;;;8.95;;
46863;SDS011;32598;50.204;6.408;2023-05-29T04:03:23;19.33;;;8.73;;
46863;SDS011;32598;50.204;6.408;2023-05-29T04:05:48;21.80;;;9.13;;
46863;SDS011;32598;50.204;6.408;2023-05-29T04:08:14;21.23;;;9.57;;
46863;SDS011;32598;50.204;6.408;2023-05-29T04:10:39;18.30;;;8.73;;
46863;SDS011;32598;50.204;6.408;2023-05-29T04:13:04;16.70;;;8.20;;
46863;SDS011;32598;50.204;6.408;2023-05-29T04:15:31;20.08;;;9.02;;
46863;SDS011;32598;50.204;6.408;2023-05-29T04:17:58;19.95;;;8.77;;
46863;SDS011;32598;50.204;6.408;2023-05-29T04:20:23;15.70;;;8.50;;
46863;SDS011;32598;50.204;6.408;2023-05-29T04:22:48;17.23;;;7.70;;
46863;SDS011;32598;50.204;6.408;2023-05-29T04:25:13;17.63;;;8.27;;
46863;SDS011;32598;50.204;6.408;2023-05-29T04:27:38;17.73;;;8.77;;
46863;SDS011;32598;50.204;6.408;2023-05-29T04:30:04;17.30;;;7.83;;
46863;SDS011;32598;50.204;6.408;2023-05-29T04:32:30;14.55;;;8.43;;
46863;SDS011;32598;50.204;6.408;2023-05-29T04:34:55;14.20;;;7.15;;
46863;SDS011;32598;50.204;6.408;2023-05-29T04:37:21;13.50;;;7.00;;
46863;SDS011;32598;50.204;6.408;2023-05-29T04:39:53;17.90;;;8.43;;
46863;SDS011;32598;50.204;6.408;2023-05-29T04:42:19;17.17;;;7.40;;
46863;SDS011;32598;50.204;6.408;2023-05-29T04:44:44;14.03;;;6.93;;
46863;SDS011;32598;50.204;6.408;2023-05-29T04:47:09;14.70;;;7.15;;
46863;SDS011;32598;50.204;6.408;2023-05-29T04:49:34;13.47;;;6.90;;
46863;SDS011;32598;50.204;6.408;2023-05-29T04:51:59;12.07;;;6.95;;
46863;SDS011;32598;50.204;6.408;2023-05-29T04:54:25;14.75;;;7.18;;
46863;SDS011;32598;50.204;6.408;2023-05-29T04:56:50;17.07;;;6.53;;
46863;SDS011;32598;50.204;6.408;2023-05-29T04:59:15;12.90;;;6.90;;
46863;SDS011;32598;50.204;6.408;2023-05-29T05:01:41;15.30;;;6.88;;
46863;SDS011;32598;50.204;6.408;2023-05-29T05:04:08;11.68;;;6.18;;
46863;SDS011;32598;50.204;6.408;2023-05-29T05:06:33;14.02;;;7.22;;
46863;SDS011;32598;50.204;6.408;2023-05-29T05:08:58;13.20;;;5.67;;
46863;SDS011;32598;50.204;6.408;2023-05-29T05:11:23;10.10;;;6.10;;
46863;SDS011;32598;50.204;6.408;2023-05-29T05:13:49;13.80;;;6.00;;
46863;SDS011;32598;50.204;6.408;2023-05-29T05:16:15;15.10;;;6.50;;
46863;SDS011;32598;50.204;6.408;2023-05-29T05:18:41;16.05;;;7.43;;
46863;SDS011;32598;50.204;6.408;2023-05-29T05:21:06;16.10;;;7.07;;
46863;SDS011;32598;50.204;6.408;2023-05-29T05:23:32;13.27;;;6.45;;
46863;SDS011;32598;50.204;6.408;2023-05-29T05:25:57;12.82;;;6.78;;
46863;SDS011;32598;50.204;6.408;2023-05-29T05:28:22;15.53;;;6.60;;
46863;SDS011;32598;50.204;6.408;2023-05-29T05:30:47;16.25;;;6.93;;
46863;SDS011;32598;50.204;6.408;2023-05-29T05:33:13;14.20;;;6.18;;
46863;SDS011;32598;50.204;6.408;2023-05-29T05:35:38;16.67;;;6.43;;
46863;SDS011;32598;50.204;6.408;2023-05-29T05:38:03;16.65;;;6.30;;
46863;SDS011;32598;50.204;6.408;2023-05-29T05:40:29;12.30;;;6.10;;
46863;SDS011;32598;50.204;6.408;2023-05-29T05:42:54;15.77;;;7.13;;
46863;SDS011;32598;50.204;6.408;2023-05-29T05:45:19;15.80;;;6.18;;
46863;SDS011;32598;50.204;6.408;2023-05-29T05:47:45;13.00;;;5.67;;
46863;SDS011;32598;50.204;6.408;2023-05-29T05:50:11;13.95;;;6.07;;
46863;SDS011;32598;50.204;6.408;2023-05-29T05:52:36;13.60;;;6.23;;
46863;SDS011;32598;50.204;6.408;2023-05-29T05:55:01;13.18;;;6.72;;
46863;SDS011;32598;50.204;6.408;2023-05-29T05:57:28;14.30;;;5.82;;
46863;SDS011;32598;50.204;6.408;2023-05-29T05:59:53;11.88;;;6.10;;
46863;SDS011;32598;50.204;6.408;2023-05-29T06:02:18;15.47;;;5.93;;
46863;SDS011;32598;50.204;6.408;2023-05-29T06:04:43;14.63;;;5.70;;
46863;SDS011;32598;50.204;6.408;2023-05-29T06:07:08;12.27;;;5.80;;
46863;SDS011;32598;50.204;6.408;2023-05-29T06:09:34;14.13;;;5.83;;
46863;SDS011;32598;50.204;6.408;2023-05-29T06:11:59;12.60;;;5.67;;
46863;SDS011;32598;50.204;6.408;2023-05-29T06:14:25;11.93;;;6.00;;
46863;SDS011;32598;50.204;6.408;2023-05-29T06:16:50;12.32;;;5.53;;
46863;SDS011;32598;50.204;6.408;2023-05-29T06:19:15;14.65;;;6.30;;
46863;SDS011;32598;50.204;6.408;2023-05-29T06:21:41;11.88;;;5.60;;
46863;SDS011;32598;50.204;6.408;2023-05-29T06:24:06;12.80;;;5.88;;
46863;SDS011;32598;50.204;6.408;2023-05-29T06:26:31;10.05;;;5.15;;
46863;SDS011;32598;50.204;6.408;2023-05-29T06:28:57;13.52;;;5.18;;
46863;SDS011;32598;50.204;6.408;2023-05-29T06:31:22;14.20;;;5.95;;
46863;SDS011;32598;50.204;6.408;2023-05-29T06:33:47;14.00;;;6.43;;
46863;SDS011;32598;50.204;6.408;2023-05-29T06:36:13;15.23;;;6.53;;
46863;SDS011;32598;50.204;6.408;2023-05-29T06:38:38;13.55;;;6.47;;
46863;SDS011;32598;50.204;6.408;2023-05-29T06:41:03;16.27;;;6.30;;
46863;SDS011;32598;50.204;6.408;2023-05-29T06:43:28;12.40;;;6.70;;
46863;SDS011;32598;50.204;6.408;2023-05-29T06:45:54;17.07;;;6.13;;
46863;SDS011;32598;50.204;6.408;2023-05-29T06:48:19;16.48;;;6.82;;
46863;SDS011;32598;50.204;6.408;2023-05-29T06:50:44;15.00;;;6.47;;
46863;SDS011;32598;50.204;6.408;2023-05-29T06:53:10;11.25;;;5.53;;
46863;SDS011;32598;50.204;6.408;2023-05-29T06:55:35;10.67;;;6.30;;
46863;SDS011;32598;50.204;6.408;2023-05-29T06:58:00;13.37;;;6.40;;
46863;SDS011;32598;50.204;6.408;2023-05-29T07:00:26;19.00;;;6.77;;
46863;SDS011;32598;50.204;6.408;2023-05-29T07:02:51;14.60;;;6.68;;
46863;SDS011;32598;50.204;6.408;2023-05-29T07:05:16;16.50;;;6.43;;
46863;SDS011;32598;50.204;6.408;2023-05-29T07:07:41;12.32;;;6.57;;
46863;SDS011;32598;50.204;6.408;2023-05-29T07:10:07;12.20;;;5.80;;
46863;SDS011;32598;50.204;6.408;2023-05-29T07:12:32;18.30;;;7.18;;
46863;SDS011;32598;50.204;6.408;2023-05-29T07:14:57;13.93;;;5.90;;
46863;SDS011;32598;50.204;6.408;2023-05-29T07:17:22;13.05;;;6.43;;
46863;SDS011;32598;50.204;6.408;2023-05-29T07:19:47;15.20;;;6.35;;
46863;SDS011;32598;50.204;6.408;2023-05-29T07:22:14;15.45;;;6.28;;
46863;SDS011;32598;50.204;6.408;2023-05-29T07:24:39;13.23;;;7.13;;
46863;SDS011;32598;50.204;6.408;2023-05-29T07:27:05;14.52;;;6.53;;
46863;SDS011;32598;50.204;6.408;2023-05-29T07:29:30;19.70;;;7.10;;
46863;SDS011;32598;50.204;6.408;2023-05-29T07:31:56;16.33;;;7.05;;
46863;SDS011;32598;50.204;6.408;2023-05-29T07:34:21;13.32;;;6.57;;
46863;SDS011;32598;50.204;6.408;2023-05-29T07:36:56;15.27;;;7.50;;
46863;SDS011;32598;50.204;6.408;2023-05-29T07:39:21;15.68;;;7.70;;
46863;SDS011;32598;50.204;6.408;2023-05-29T07:41:46;17.98;;;7.57;;
46863;SDS011;32598;50.204;6.408;2023-05-29T07:44:12;16.40;;;8.00;;
46863;SDS011;32598;50.204;6.408;2023-05-29T07:46:37;14.43;;;6.37;;
46863;SDS011;32598;50.204;6.408;2023-05-29T07:49:02;11.87;;;6.40;;
46863;SDS011;32598;50.204;6.408;2023-05-29T07:51:27;17.35;;;6.43;;
46863;SDS011;32598;50.204;6.408;2023-05-29T07:53:52;12.77;;;6.50;;
46863;SDS011;32598;50.204;6.408;2023-05-29T07:56:17;15.97;;;6.73;;
46863;SDS011;32598;50.204;6.408;2023-05-29T07:58:43;13.07;;;5.65;;
46863;SDS011;32598;50.204;6.408;2023-05-29T08:01:08;15.53;;;6.20;;
46863;SDS011;32598;50.204;6.408;2023-05-29T08:03:33;10.40;;;5.23;;
46863;SDS011;32598;50.204;6.408;2023-05-29T08:05:58;14.20;;;5.73;;
46863;SDS011;32598;50.204;6.408;2023-05-29T08:08:23;16.23;;;5.73;;
46863;SDS011;32598;50.204;6.408;2023-05-29T08:10:48;10.97;;;5.40;;
46863;SDS011;32598;50.204;6.408;2023-05-29T08:13:14;11.93;;;4.90;;
46863;SDS011;32598;50.204;6.408;2023-05-29T08:15:39;14.50;;;5.93;;
46863;SDS011;32598;50.204;6.408;2023-05-29T08:18:04;10.13;;;4.53;;
46863;SDS011;32598;50.204;6.408;2023-05-29T08:20:30;13.27;;;5.40;;
46863;SDS011;32598;50.204;6.408;2023-05-29T08:22:55;11.27;;;4.72;;
46863;SDS011;32598;50.204;6.408;2023-05-29T08:25:21;13.85;;;5.35;;
46863;SDS011;32598;50.204;6.408;2023-05-29T08:27:46;11.77;;;5.13;;
46863;SDS011;32598;50.204;6.408;2023-05-29T08:30:11;14.63;;;5.13;;
46863;SDS011;32598;50.204;6.408;2023-05-29T08:32:36;11.60;;;4.85;;
46863;SDS011;32598;50.204;6.408;2023-05-29T08:35:02;11.10;;;4.60;;
46863;SDS011;32598;50.204;6.408;2023-05-29T08:37:29;12.63;;;4.90;;
46863;SDS011;32598;50.204;6.408;2023-05-29T08:39:54;12.07;;;4.45;;
46863;SDS011;32598;50.204;6.408;2023-05-29T08:42:40;15.23;;;4.60;;
46863;SDS011;32598;50.204;6.408;2023-05-29T08:45:08;12.15;;;4.95;;
46863;SDS011;32598;50.204;6.408;2023-05-29T08:47:34;12.73;;;4.85;;
46863;SDS011;32598;50.204;6.408;2023-05-29T08:50:01;10.15;;;4.40;;
46863;SDS011;32598;50.204;6.408;2023-05-29T08:52:26;10.95;;;4.53;;
46863;SDS011;32598;50.204;6.408;2023-05-29T08:54:54;14.00;;;4.18;;
46863;SDS011;32598;50.204;6.408;2023-05-29T08:57:19;13.52;;;4.18;;
46863;SDS011;32598;50.204;6.408;2023-05-29T08:59:45;14.00;;;4.57;;
46863;SDS011;32598;50.204;6.408;2023-05-29T09:02:11;11.43;;;4.55;;
46863;SDS011;32598;50.204;6.408;2023-05-29T09:04:37;13.35;;;4.50;;
46863;SDS011;32598;50.204;6.408;2023-05-29T09:07:02;11.43;;;4.55;;
46863;SDS011;32598;50.204;6.408;2023-05-29T09:09:28;13.75;;;4.47;;
46863;SDS011;32598;50.204;6.408;2023-05-29T09:11:53;10.07;;;4.10;;
46863;SDS011;32598;50.204;6.408;2023-05-29T09:17:13;9.85;;;3.70;;
46863;SDS011;32598;50.204;6.408;2023-05-29T09:19:38;10.80;;;4.00;;
46863;SDS011;32598;50.204;6.408;2023-05-29T09:22:06;11.07;;;4.57;;
46863;SDS011;32598;50.204;6.408;2023-05-29T09:24:33;11.52;;;4.38;;
46863;SDS011;32598;50.204;6.408;2023-05-29T09:26:59;15.38;;;4.28;;
46863;SDS011;32598;50.204;6.408;2023-05-29T09:29:24;13.68;;;4.03;;
46863;SDS011;32598;50.204;6.408;2023-05-29T09:31:50;8.37;;;3.93;;
46863;SDS011;32598;50.204;6.408;2023-05-29T09:34:15;12.43;;;4.10;;
46863;SDS011;32598;50.204;6.408;2023-05-29T09:36:40;8.77;;;3.67;;
46863;SDS011;32598;50.204;6.408;2023-05-29T09:39:06;8.18;;;3.80;;
46863;SDS011;32598;50.204;6.408;2023-05-29T09:41:34;8.88;;;3.90;;
46863;SDS011;32598;50.204;6.408;2023-05-29T09:44:00;12.07;;;3.90;;
46863;SDS011;32598;50.204;6.408;2023-05-29T09:46:26;12.25;;;4.18;;
46863;SDS011;32598;50.204;6.408;2023-05-29T09:48:51;12.57;;;3.63;;
46863;SDS011;32598;50.204;6.408;2023-05-29T09:51:20;10.02;;;3.78;;
46863;SDS011;32598;50.204;6.408;2023-05-29T09:53:46;10.98;;;3.72;;
46863;SDS011;32598;50.204;6.408;2023-05-29T09:56:12;11.60;;;4.25;;
46863;SDS011;32598;50.204;6.408;2023-05-29T09:58:40;10.60;;;3.47;;
46863;SDS011;32598;50.204;6.408;2023-05-29T10:01:10;8.60;;;3.38;;
46863;SDS011;32598;50.204;6.408;2023-05-29T10:03:36;11.90;;;3.70;;
46863;SDS011;32598;50.204;6.408;2023-05-29T10:06:01;10.60;;;3.67;;
46863;SDS011;32598;50.204;6.408;2023-05-29T10:08:27;15.02;;;4.10;;
46863;SDS011;32598;50.204;6.408;2023-05-29T10:10:57;9.00;;;3.45;;
46863;SDS011;32598;50.204;6.408;2023-05-29T10:13:24;14.50;;;4.18;;
46863;SDS011;32598;50.204;6.408;2023-05-29T10:15:51;10.43;;;3.63;;
46863;SDS011;32598;50.204;6.408;2023-05-29T10:20:51;15.00;;;3.90;;
46863;SDS011;32598;50.204;6.408;2023-05-29T10:23:18;12.40;;;3.85;;
46863;SDS011;32598;50.204;6.408;2023-05-29T10:25:45;15.07;;;3.58;;
46863;SDS011;32598;50.204;6.408;2023-05-29T10:28:11;10.40;;;3.55;;
46863;SDS011;32598;50.204;6.408;2023-05-29T10:31:21;9.63;;;3.65;;
46863;SDS011;32598;50.204;6.408;2023-05-29T10:33:42;9.57;;;3.53;;
46863;SDS011;32598;50.204;6.408;2023-05-29T10:36:12;10.02;;;3.80;;
46863;SDS011;32598;50.204;6.408;2023-05-29T10:38:40;9.65;;;3.55;;
46863;SDS011;32598;50.204;6.408;2023-05-29T10:41:50;11.02;;;3.50;;
46863;SDS011;32598;50.204;6.408;2023-05-29T10:43:53;9.18;;;3.50;;
46863;SDS011;32598;50.204;6.408;2023-05-29T10:46:18;12.02;;;3.67;;
46863;SDS011;32598;50.204;6.408;2023-05-29T10:48:43;10.67;;;3.20;;
46863;SDS011;32598;50.204;6.408;2023-05-29T10:51:08;11.90;;;3.63;;
46863;SDS011;32598;50.204;6.408;2023-05-29T10:53:48;11.35;;;3.90;;
46863;SDS011;32598;50.204;6.408;2023-05-29T10:56:16;11.15;;;3.58;;
46863;SDS011;32598;50.204;6.408;2023-05-29T10:58:44;13.05;;;3.65;;
46863;SDS011;32598;50.204;6.408;2023-05-29T11:01:16;11.45;;;3.97;;
46863;SDS011;32598;50.204;6.408;2023-05-29T11:03:41;10.10;;;3.65;;
46863;SDS011;32598;50.204;6.408;2023-05-29T11:06:07;12.33;;;3.50;;
46863;SDS011;32598;50.204;6.408;2023-05-29T11:08:52;14.38;;;4.13;;
46863;SDS011;32598;50.204;6.408;2023-05-29T11:13:53;9.85;;;3.78;;
46863;SDS011;32598;50.204;6.408;2023-05-29T11:18:57;13.98;;;4.60;;
46863;SDS011;32598;50.204;6.408;2023-05-29T11:24:03;12.40;;;4.38;;
46863;SDS011;32598;50.204;6.408;2023-05-29T11:26:31;14.32;;;4.20;;
46863;SDS011;32598;50.204;6.408;2023-05-29T11:28:58;11.80;;;3.78;;
46863;SDS011;32598;50.204;6.408;2023-05-29T11:31:23;14.68;;;5.13;;
46863;SDS011;32598;50.204;6.408;2023-05-29T11:33:49;16.88;;;4.53;;
46863;SDS011;32598;50.204;6.408;2023-05-29T11:36:15;10.90;;;3.50;;
46863;SDS011;32598;50.204;6.408;2023-05-29T11:38:41;11.65;;;3.33;;
46863;SDS011;32598;50.204;6.408;2023-05-29T11:41:06;9.47;;;3.40;;
46863;SDS011;32598;50.204;6.408;2023-05-29T11:43:31;9.77;;;3.37;;
46863;SDS011;32598;50.204;6.408;2023-05-29T11:45:57;11.00;;;4.03;;
46863;SDS011;32598;50.204;6.408;2023-05-29T11:48:23;10.93;;;3.43;;
46863;SDS011;32598;50.204;6.408;2023-05-29T11:50:48;11.65;;;3.80;;
46863;SDS011;32598;50.204;6.408;2023-05-29T11:53:14;12.20;;;4.25;;
46863;SDS011;32598;50.204;6.408;2023-05-29T11:55:39;12.27;;;3.70;;
46863;SDS011;32598;50.204;6.408;2023-05-29T11:58:04;11.88;;;3.38;;
46863;SDS011;32598;50.204;6.408;2023-05-29T12:00:34;9.68;;;3.38;;
46863;SDS011;32598;50.204;6.408;2023-05-29T12:02:59;9.93;;;3.72;;
46863;SDS011;32598;50.204;6.408;2023-05-29T12:05:31;11.02;;;3.70;;
46863;SDS011;32598;50.204;6.408;2023-05-29T12:07:57;10.55;;;3.53;;
46863;SDS011;32598;50.204;6.408;2023-05-29T12:10:23;13.93;;;3.90;;
46863;SDS011;32598;50.204;6.408;2023-05-29T12:12:55;11.15;;;3.85;;
46863;SDS011;32598;50.204;6.408;2023-05-29T12:15:21;13.52;;;3.70;;
46863;SDS011;32598;50.204;6.408;2023-05-29T12:17:47;11.80;;;3.97;;
46863;SDS011;32598;50.204;6.408;2023-05-29T12:20:13;10.32;;;3.78;;
46863;SDS011;32598;50.204;6.408;2023-05-29T12:22:39;12.85;;;3.55;;
46863;SDS011;32598;50.204;6.408;2023-05-29T12:27:31;11.65;;;4.13;;
46863;SDS011;32598;50.204;6.408;2023-05-29T12:30:03;11.05;;;4.28;;
46863;SDS011;32598;50.204;6.408;2023-05-29T12:32:38;8.60;;;3.20;;
46863;SDS011;32598;50.204;6.408;2023-05-29T12:35:13;11.98;;;3.70;;
46863;SDS011;32598;50.204;6.408;2023-05-29T12:37:45;10.82;;;3.45;;
46863;SDS011;32598;50.204;6.408;2023-05-29T12:42:41;18.20;;;4.78;;
46863;SDS011;32598;50.204;6.408;2023-05-29T12:45:07;13.63;;;4.45;;
46863;SDS011;32598;50.204;6.408;2023-05-29T12:47:33;17.35;;;5.03;;
46863;SDS011;32598;50.204;6.408;2023-05-29T12:49:58;13.35;;;4.47;;
46863;SDS011;32598;50.204;6.408;2023-05-29T12:52:23;13.60;;;4.77;;
46863;SDS011;32598;50.204;6.408;2023-05-29T12:54:48;18.17;;;5.03;;
46863;SDS011;32598;50.204;6.408;2023-05-29T12:57:14;16.43;;;4.83;;
46863;SDS011;32598;50.204;6.408;2023-05-29T12:59:39;16.70;;;4.47;;
46863;SDS011;32598;50.204;6.408;2023-05-29T13:02:05;15.15;;;4.50;;
46863;SDS011;32598;50.204;6.408;2023-05-29T13:04:32;15.25;;;4.13;;
46863;SDS011;32598;50.204;6.408;2023-05-29T13:06:57;12.43;;;4.53;;
46863;SDS011;32598;50.204;6.408;2023-05-29T13:09:22;15.15;;;4.63;;
46863;SDS011;32598;50.204;6.408;2023-05-29T13:11:48;15.57;;;4.53;;
46863;SDS011;32598;50.204;6.408;2023-05-29T13:14:13;17.73;;;4.57;;
46863;SDS011;32598;50.204;6.408;2023-05-29T13:16:38;15.90;;;5.28;;
46863;SDS011;32598;50.204;6.408;2023-05-29T13:19:03;17.43;;;5.20;;
46863;SDS011;32598;50.204;6.408;2023-05-29T13:21:28;13.63;;;4.60;;
46863;SDS011;32598;50.204;6.408;2023-05-29T13:23:53;15.47;;;4.57;;
46863;SDS011;32598;50.204;6.408;2023-05-29T13:26:19;20.02;;;5.10;;
46863;SDS011;32598;50.204;6.408;2023-05-29T13:28:44;13.70;;;5.17;;
46863;SDS011;32598;50.204;6.408;2023-05-29T13:31:09;14.40;;;4.63;;
46863;SDS011;32598;50.204;6.408;2023-05-29T13:33:35;16.42;;;4.68;;
46863;SDS011;32598;50.204;6.408;2023-05-29T13:36:00;13.00;;;4.85;;
46863;SDS011;32598;50.204;6.408;2023-05-29T13:38:25;15.37;;;4.90;;
46863;SDS011;32598;50.204;6.408;2023-05-29T13:40:50;15.47;;;4.53;;
46863;SDS011;32598;50.204;6.408;2023-05-29T13:43:15;13.03;;;4.03;;
46863;SDS011;32598;50.204;6.408;2023-05-29T13:45:40;10.33;;;4.03;;
46863;SDS011;32598;50.204;6.408;2023-05-29T13:48:05;18.97;;;4.10;;
46863;SDS011;32598;50.204;6.408;2023-05-29T13:50:31;13.83;;;4.43;;
46863;SDS011;32598;50.204;6.408;2023-05-29T13:52:56;14.30;;;4.40;;
46863;SDS011;32598;50.204;6.408;2023-05-29T13:55:21;17.10;;;4.47;;
46863;SDS011;32598;50.204;6.408;2023-05-29T13:57:46;26.73;;;5.43;;
46863;SDS011;32598;50.204;6.408;2023-05-29T14:00:12;16.47;;;4.57;;
46863;SDS011;32598;50.204;6.408;2023-05-29T14:02:37;16.38;;;5.05;;
46863;SDS011;32598;50.204;6.408;2023-05-29T14:05:02;15.50;;;4.57;;
46863;SDS011;32598;50.204;6.408;2023-05-29T14:07:27;12.43;;;3.90;;
46863;SDS011;32598;50.204;6.408;2023-05-29T14:09:53;11.27;;;4.50;;
46863;SDS011;32598;50.204;6.408;2023-05-29T14:12:18;13.23;;;4.35;;
46863;SDS011;32598;50.204;6.408;2023-05-29T14:14:43;17.93;;;5.00;;
46863;SDS011;32598;50.204;6.408;2023-05-29T14:17:08;14.57;;;4.40;;
46863;SDS011;32598;50.204;6.408;2023-05-29T14:19:34;13.77;;;4.60;;
46863;SDS011;32598;50.204;6.408;2023-05-29T14:21:59;13.20;;;4.10;;
